Time,TemperatureF,DewpointF,PressureIn,WindDirection,WindDirectionDegrees,WindSpeedMPH,WindSpeedGustMPH,Humidity,HourlyPrecipIn,Conditions,Clouds,dailyrainin,SolarRadiationWatts/m^2,SoftwareType,DateUTC
2013-02-27 00:02:00,27.6,22.2,29.96,NE,36,16.1,16.1,80,0.00,,BKN,0.22,0.0,WeatherDisplay:10.37,2013-02-27 06:02:00,
2013-02-27 00:07:00,27.6,22.2,29.96,NNE,27,15.0,15.0,80,0.00,,BKN,0.22,0.0,WeatherDisplay:10.37,2013-02-27 06:07:00,
2013-02-27 00:13:00,27.6,22.5,29.96,ENE,63,13.8,13.8,81,0.00,,BKN,0.22,0.0,WeatherDisplay:10.37,2013-02-27 06:13:00,
2013-02-27 00:18:00,27.6,22.5,29.96,ENE,59,21.9,21.9,81,0.00,,BKN,0.22,0.0,WeatherDisplay:10.37,2013-02-27 06:18:00,
2013-02-27 00:23:00,27.6,22.5,29.96,NE,40,12.7,12.7,81,0.00,,BKN,0.22,0.0,WeatherDisplay:10.37,2013-02-27 06:23:00,
2013-02-27 00:28:00,27.6,22.5,29.96,NE,44,13.8,13.8,81,0.00,,BKN,0.22,0.0,WeatherDisplay:10.37,2013-02-27 06:28:00,
2013-02-27 00:33:00,27.6,22.5,29.96,NE,40,16.1,16.1,81,0.00,,BKN,0.22,0.0,WeatherDisplay:10.37,2013-02-27 06:33:00,
2013-02-27 00:38:00,27.6,22.5,29.96,NE,38,19.6,19.6,81,0.00,,BKN,0.22,0.0,WeatherDisplay:10.37,2013-02-27 06:38:00,
2013-02-27 00:43:00,27.6,22.5,29.95,NE,34,17.3,17.3,81,0.00,,BKN,0.22,0.0,WeatherDisplay:10.37,2013-02-27 06:43:00,
2013-02-27 00:49:00,27.6,22.5,29.96,NNE,28,16.0,16.0,81,0.00,,BKN,0.22,0.0,WeatherDisplay:10.37,2013-02-27 06:49:00,
2013-02-27 00:54:00,27.6,22.5,29.96,NNE,29,17.3,17.3,81,0.00,,BKN,0.22,0.0,WeatherDisplay:10.37,2013-02-27 06:54:00,
2013-02-27 00:59:00,27.8,23.0,29.95,East,81,18.4,18.4,82,0.00,,BKN,0.22,0.0,WeatherDisplay:10.37,2013-02-27 06:59:00,
2013-02-27 01:04:00,27.8,23.0,29.95,NE,39,17.3,17.3,82,0.00,,BKN,0.22,0.0,WeatherDisplay:10.37,2013-02-27 07:04:00,
2013-02-27 01:09:00,27.8,23.0,29.95,ENE,63,18.4,18.4,82,0.00,,BKN,0.22,0.0,WeatherDisplay:10.37,2013-02-27 07:09:00,
2013-02-27 01:14:00,27.8,23.0,29.95,NE,49,19.6,19.6,82,0.00,,BKN,0.22,0.0,WeatherDisplay:10.37,2013-02-27 07:14:00,
2013-02-27 01:19:00,27.8,23.0,29.95,ENE,65,13.8,13.8,82,0.00,,BKN,0.22,0.0,WeatherDisplay:10.37,2013-02-27 07:19:00,
2013-02-27 01:24:00,27.6,22.8,29.95,NE,40,15.0,15.0,82,0.00,,BKN,0.22,0.0,WeatherDisplay:10.37,2013-02-27 07:24:00,
2013-02-27 01:29:00,27.6,22.8,29.95,NE,49,8.0,20.0,82,0.00,,BKN,0.22,0.0,WeatherDisplay:10.37,2013-02-27 07:29:00,
2013-02-27 01:35:00,27.6,23.1,29.95,ENE,59,11.5,11.5,83,0.00,,BKN,0.22,0.0,WeatherDisplay:10.37,2013-02-27 07:35:00,
2013-02-27 01:40:00,27.6,23.1,29.95,NE,54,11.5,11.5,83,0.00,,BKN,0.22,0.0,WeatherDisplay:10.37,2013-02-27 07:40:00,
2013-02-27 01:45:00,27.6,23.1,29.95,NE,49,11.5,11.5,83,0.00,,BKN,0.22,0.0,WeatherDisplay:10.37,2013-02-27 07:45:00,
2013-02-27 01:50:00,27.6,23.1,29.94,NNE,28,11.5,11.5,83,0.00,,BKN,0.22,0.0,WeatherDisplay:10.37,2013-02-27 07:50:00,
2013-02-27 01:55:00,27.6,23.1,29.95,NE,48,17.3,17.3,83,0.00,,BKN,0.22,0.0,WeatherDisplay:10.37,2013-02-27 07:55:00,
2013-02-27 02:00:00,27.6,23.1,29.95,NNE,23,11.5,11.5,83,0.00,,BKN,0.22,0.0,WeatherDisplay:10.37,2013-02-27 08:00:00,
2013-02-27 02:05:00,27.6,23.1,29.95,NE,48,13.8,13.8,83,0.00,,BKN,0.22,0.0,WeatherDisplay:10.37,2013-02-27 08:05:00,
2013-02-27 02:10:00,27.6,23.1,29.95,ENE,58,11.5,11.5,83,0.00,,BKN,0.22,0.0,WeatherDisplay:10.37,2013-02-27 08:10:00,
2013-02-27 02:16:00,27.6,23.4,29.95,NE,44,17.0,17.0,84,0.00,,BKN,0.22,0.0,WeatherDisplay:10.37,2013-02-27 08:16:00,
2013-02-27 02:21:00,27.6,23.4,29.94,NE,34,12.7,12.7,84,0.00,,BKN,0.22,0.0,WeatherDisplay:10.37,2013-02-27 08:21:00,
2013-02-27 02:26:00,27.6,23.4,29.94,ENE,75,13.8,13.8,84,0.00,,BKN,0.22,0.0,WeatherDisplay:10.37,2013-02-27 08:26:00,
2013-02-27 02:31:00,27.6,23.4,29.94,ENE,63,11.5,11.5,84,0.00,,BKN,0.22,0.0,WeatherDisplay:10.37,2013-02-27 08:31:00,
2013-02-27 02:36:00,27.6,23.4,29.94,ENE,63,16.1,16.1,84,0.00,,BKN,0.22,0.0,WeatherDisplay:10.37,2013-02-27 08:36:00,
2013-02-27 02:41:00,27.6,23.4,29.93,NE,44,16.1,16.1,84,0.00,,BKN,0.22,0.0,WeatherDisplay:10.37,2013-02-27 08:41:00,
2013-02-27 02:46:00,27.6,23.4,29.93,NE,47,17.0,17.0,84,0.00,,BKN,0.22,0.0,WeatherDisplay:10.37,2013-02-27 08:46:00,
2013-02-27 02:52:00,27.6,23.4,29.93,NNE,26,16.1,16.1,84,0.00,,BKN,0.22,0.0,WeatherDisplay:10.37,2013-02-27 08:52:00,
2013-02-27 02:57:00,27.8,23.6,29.93,NE,42,17.3,17.3,84,0.00,,BKN,0.22,0.0,WeatherDisplay:10.37,2013-02-27 08:57:00,
2013-02-27 03:02:00,27.8,23.6,29.93,NNE,29,12.7,12.7,84,0.00,,BKN,0.22,0.0,WeatherDisplay:10.37,2013-02-27 09:02:00,
2013-02-27 03:07:00,27.8,23.6,29.93,NE,48,20.7,20.7,84,0.00,,BKN,0.22,0.0,WeatherDisplay:10.37,2013-02-27 09:07:00,
2013-02-27 03:12:00,27.9,23.7,29.93,NE,41,18.4,18.4,84,0.00,,BKN,0.22,0.0,WeatherDisplay:10.37,2013-02-27 09:12:00,
2013-02-27 03:17:00,27.9,24.0,29.93,East,92,11.5,11.5,85,0.00,,BKN,0.22,0.0,WeatherDisplay:10.37,2013-02-27 09:17:00,
2013-02-27 03:22:00,27.9,24.0,29.92,NE,47,17.3,17.3,85,0.00,,BKN,0.22,0.0,WeatherDisplay:10.37,2013-02-27 09:22:00,
2013-02-27 03:27:00,27.9,24.0,29.92,North,11,18.4,18.4,85,0.00,,BKN,0.22,0.0,WeatherDisplay:10.37,2013-02-27 09:27:00,
2013-02-27 03:33:00,27.9,24.0,29.92,North,4,21.9,21.9,85,0.00,,BKN,0.22,0.0,WeatherDisplay:10.37,2013-02-27 09:33:00,
2013-02-27 03:38:00,28.1,24.2,29.92,NE,41,26.5,26.5,85,0.00,,BKN,0.22,0.0,WeatherDisplay:10.37,2013-02-27 09:38:00,
2013-02-27 03:43:00,28.1,24.2,29.92,ENE,60,17.3,17.3,85,0.00,,BKN,0.22,0.0,WeatherDisplay:10.37,2013-02-27 09:43:00,
2013-02-27 03:48:00,28.2,24.0,29.92,North,9,20.0,20.0,84,0.00,,BKN,0.22,0.0,WeatherDisplay:10.37,2013-02-27 09:48:00,
2013-02-27 03:53:00,28.2,24.0,29.92,NE,52,16.1,16.1,84,0.00,,BKN,0.22,0.0,WeatherDisplay:10.37,2013-02-27 09:53:00,
2013-02-27 03:58:00,28.2,24.0,29.92,ENE,75,20.7,20.7,84,0.00,,BKN,0.22,0.0,WeatherDisplay:10.37,2013-02-27 09:58:00,
2013-02-27 04:03:00,28.2,24.0,29.92,NE,41,19.6,19.6,84,0.00,,BKN,0.22,0.0,WeatherDisplay:10.37,2013-02-27 10:03:00,
2013-02-27 04:09:00,28.2,24.0,29.92,ENE,62,17.3,17.3,84,0.00,,BKN,0.22,0.0,WeatherDisplay:10.37,2013-02-27 10:09:00,
2013-02-27 04:14:00,28.4,24.2,29.92,NE,34,12.7,12.7,84,0.00,,BKN,0.22,0.0,WeatherDisplay:10.37,2013-02-27 10:14:00,
2013-02-27 04:19:00,28.4,24.2,29.92,NE,50,15.0,15.0,84,0.00,,BKN,0.22,0.0,WeatherDisplay:10.37,2013-02-27 10:19:00,
2013-02-27 04:24:00,28.4,24.5,29.91,NNE,12,19.6,19.6,85,0.00,,BKN,0.22,0.0,WeatherDisplay:10.37,2013-02-27 10:24:00,
2013-02-27 04:29:00,28.4,24.5,29.91,NNE,20,19.6,19.6,85,0.00,,BKN,0.22,0.0,WeatherDisplay:10.37,2013-02-27 10:29:00,
2013-02-27 04:34:00,28.4,24.5,29.91,NE,46,25.3,25.3,85,0.00,,BKN,0.22,0.0,WeatherDisplay:10.37,2013-02-27 10:34:00,
2013-02-27 04:39:00,28.4,24.5,29.91,NE,44,21.9,21.9,85,0.00,,BKN,0.22,0.0,WeatherDisplay:10.37,2013-02-27 10:39:00,
2013-02-27 04:45:00,28.4,24.5,29.91,NE,52,16.1,16.1,85,0.00,,BKN,0.22,0.0,WeatherDisplay:10.37,2013-02-27 10:45:00,
2013-02-27 04:50:00,28.4,24.7,29.91,East,82,16.1,16.1,86,0.00,,BKN,0.22,0.0,WeatherDisplay:10.37,2013-02-27 10:50:00,
2013-02-27 04:55:00,28.4,24.7,29.91,ENE,65,28.8,28.8,86,0.00,,BKN,0.22,0.0,WeatherDisplay:10.37,2013-02-27 10:55:00,
2013-02-27 05:00:00,28.4,24.7,29.91,NNE,15,15.0,15.0,86,0.00,,BKN,0.22,0.0,WeatherDisplay:10.37,2013-02-27 11:00:00,
2013-02-27 05:05:00,28.4,24.7,29.91,NNE,19,18.4,18.4,86,0.00,,BKN,0.22,0.0,WeatherDisplay:10.37,2013-02-27 11:05:00,
2013-02-27 05:11:00,28.4,24.7,29.91,ESE,112,25.3,25.3,86,0.00,,BKN,0.22,0.0,WeatherDisplay:10.37,2013-02-27 11:11:00,
2013-02-27 05:16:00,28.4,24.7,29.91,NE,40,19.6,19.6,86,0.00,,BKN,0.22,0.0,WeatherDisplay:10.37,2013-02-27 11:16:00,
2013-02-27 05:21:00,28.4,24.7,29.91,ENE,57,19.0,19.0,86,0.00,,BKN,0.22,0.0,WeatherDisplay:10.37,2013-02-27 11:21:00,
2013-02-27 05:26:00,28.2,24.3,29.91,NNE,27,24.2,24.2,85,0.00,,BKN,0.22,0.0,WeatherDisplay:10.37,2013-02-27 11:26:00,
2013-02-27 05:31:00,28.2,24.0,29.90,NE,43,21.0,21.0,84,0.00,,BKN,0.22,0.0,WeatherDisplay:10.37,2013-02-27 11:31:00,
2013-02-27 05:36:00,28.2,24.0,29.90,NNE,25,19.6,19.6,84,0.00,,BKN,0.22,0.0,WeatherDisplay:10.37,2013-02-27 11:36:00,
2013-02-27 05:41:00,28.2,23.7,29.90,North,5,19.0,19.0,83,0.00,,BKN,0.22,0.0,WeatherDisplay:10.37,2013-02-27 11:41:00,
2013-02-27 05:47:00,28.2,23.7,29.90,NNE,25,17.3,17.3,83,0.00,,BKN,0.22,0.0,WeatherDisplay:10.37,2013-02-27 11:47:00,
2013-02-27 05:52:00,28.4,23.6,29.90,North,2,23.0,23.0,82,0.00,,BKN,0.22,0.0,WeatherDisplay:10.37,2013-02-27 11:52:00,
2013-02-27 05:57:00,28.4,23.6,29.90,North,5,24.2,24.2,82,0.00,,BKN,0.22,0.0,WeatherDisplay:10.37,2013-02-27 11:57:00,
2013-02-27 06:02:00,28.4,23.3,29.90,NNE,16,24.2,24.2,81,0.00,,BKN,0.22,0.0,WeatherDisplay:10.37,2013-02-27 12:02:00,
2013-02-27 06:07:00,28.4,23.6,29.90,NE,38,15.0,15.0,82,0.00,,BKN,0.22,0.0,WeatherDisplay:10.37,2013-02-27 12:07:00,
2013-02-27 06:12:00,28.5,23.7,29.90,NE,47,19.6,19.6,82,0.00,,BKN,0.22,0.0,WeatherDisplay:10.37,2013-02-27 12:12:00,
2013-02-27 06:17:00,28.5,23.7,29.91,NE,48,18.4,18.4,82,0.00,,BKN,0.22,0.0,WeatherDisplay:10.37,2013-02-27 12:17:00,
2013-02-27 06:22:00,28.5,23.7,29.91,NNE,17,17.3,17.3,82,0.00,,BKN,0.22,0.0,WeatherDisplay:10.37,2013-02-27 12:22:00,
2013-02-27 06:28:00,28.5,23.7,29.90,East,89,12.7,12.7,82,0.00,,BKN,0.22,0.0,WeatherDisplay:10.37,2013-02-27 12:28:00,
2013-02-27 06:33:00,28.5,24.0,29.90,NE,34,21.9,21.9,83,0.00,,BKN,0.22,0.0,WeatherDisplay:10.37,2013-02-27 12:33:00,
2013-02-27 06:38:00,28.5,24.0,29.91,ENE,62,10.4,10.4,83,0.00,,BKN,0.22,0.0,WeatherDisplay:10.37,2013-02-27 12:38:00,
2013-02-27 06:43:00,28.7,24.2,29.91,ENE,59,17.3,17.3,83,0.00,,BKN,0.22,0.0,WeatherDisplay:10.37,2013-02-27 12:43:00,
2013-02-27 06:48:00,28.5,24.3,29.91,NE,54,21.0,21.0,84,0.00,,BKN,0.22,0.0,WeatherDisplay:10.37,2013-02-27 12:48:00,
2013-02-27 06:53:00,28.5,24.0,29.91,NE,45,15.0,15.0,83,0.00,,BKN,0.22,0.0,WeatherDisplay:10.37,2013-02-27 12:53:00,
2013-02-27 06:58:00,28.5,24.0,29.91,East,100,10.4,10.4,83,0.00,,BKN,0.22,0.0,WeatherDisplay:10.37,2013-02-27 12:58:00,
2013-02-27 07:04:00,28.5,24.0,29.91,NE,43,16.1,16.1,83,0.00,RA,BKN,0.00,0.0,WeatherDisplay:10.37,2013-02-27 13:04:00,
2013-02-27 07:09:00,28.5,24.0,29.91,North,358,16.0,16.0,83,0.00,RA,BKN,0.00,0.0,WeatherDisplay:10.37,2013-02-27 13:09:00,
2013-02-27 07:14:00,28.5,24.0,29.91,NNE,13,13.8,13.8,83,0.00,CLR,BKN,0.00,0.0,WeatherDisplay:10.37,2013-02-27 13:14:00,
2013-02-27 07:19:00,28.5,24.0,29.91,North,354,27.6,27.6,83,0.00,CLR,BKN,0.00,0.0,WeatherDisplay:10.37,2013-02-27 13:19:00,
2013-02-27 07:24:00,28.5,24.3,29.91,NNE,16,20.7,20.7,84,0.00,CLR,BKN,0.00,0.0,WeatherDisplay:10.37,2013-02-27 13:24:00,
2013-02-27 07:29:00,28.5,24.3,29.91,NNE,27,18.4,18.4,84,0.00,CLR,BKN,0.00,0.0,WeatherDisplay:10.37,2013-02-27 13:29:00,
2013-02-27 07:34:00,28.5,24.3,29.91,NNE,29,21.9,21.9,84,0.00,CLR,BKN,0.00,0.0,WeatherDisplay:10.37,2013-02-27 13:34:00,
2013-02-27 07:39:00,28.5,24.3,29.91,North,10,15.0,15.5,84,0.00,CLR,BKN,0.00,0.0,WeatherDisplay:10.37,2013-02-27 13:39:00,
2013-02-27 07:45:00,28.5,24.3,29.91,North,7,12.7,12.7,84,0.00,CLR,BKN,0.00,0.0,WeatherDisplay:10.37,2013-02-27 13:45:00,
2013-02-27 07:50:00,28.5,24.3,29.91,ENE,61,13.0,13.0,84,0.00,CLR,BKN,0.00,0.0,WeatherDisplay:10.37,2013-02-27 13:50:00,
2013-02-27 07:55:00,28.5,24.6,29.90,North,355,26.5,26.5,85,0.00,CLR,BKN,0.00,0.0,WeatherDisplay:10.37,2013-02-27 13:55:00,
2013-02-27 08:00:00,28.5,24.6,29.90,NE,50,19.6,19.6,85,0.00,OVC,BKN,0.00,0.0,WeatherDisplay:10.37,2013-02-27 14:00:00,
2013-02-27 08:05:00,28.5,24.6,29.90,NE,39,17.3,17.3,85,0.00,OVC,BKN,0.00,0.0,WeatherDisplay:10.37,2013-02-27 14:05:00,
2013-02-27 08:10:00,28.5,24.6,29.90,ENE,65,16.1,16.1,85,0.00,OVC,BKN,0.00,0.0,WeatherDisplay:10.37,2013-02-27 14:10:00,
2013-02-27 08:15:00,28.5,24.8,29.90,ENE,77,20.7,20.7,86,0.00,OVC,BKN,0.00,0.0,WeatherDisplay:10.37,2013-02-27 14:15:00,
2013-02-27 08:21:00,28.5,24.6,29.90,NNE,19,18.4,18.4,85,0.00,OVC,BKN,0.00,0.0,WeatherDisplay:10.37,2013-02-27 14:21:00,
2013-02-27 08:26:00,28.7,24.8,29.90,NNE,13,26.5,26.5,85,0.00,OVC,BKN,0.00,0.0,WeatherDisplay:10.37,2013-02-27 14:26:00,
2013-02-27 08:31:00,28.7,24.5,29.90,WNW,296,19.6,19.6,84,0.00,OVC,BKN,0.00,0.0,WeatherDisplay:10.37,2013-02-27 14:31:00,
2013-02-27 08:36:00,28.8,24.6,29.90,East,86,18.4,18.4,84,0.00,OVC,BKN,0.00,0.0,WeatherDisplay:10.37,2013-02-27 14:36:00,
2013-02-27 08:41:00,28.8,24.6,29.90,NE,39,23.0,23.0,84,0.00,OVC,BKN,0.00,0.0,WeatherDisplay:10.37,2013-02-27 14:41:00,
2013-02-27 08:46:00,29.0,24.5,29.90,NNW,327,19.6,19.6,83,0.00,OVC,BKN,0.00,0.0,WeatherDisplay:10.37,2013-02-27 14:46:00,
2013-02-27 08:51:00,29.0,24.5,29.90,NNE,31,18.0,18.0,83,0.00,OVC,BKN,0.00,0.0,WeatherDisplay:10.37,2013-02-27 14:51:00,
2013-02-27 08:56:00,28.8,24.3,29.90,NNW,342,19.0,19.0,83,0.00,OVC,BKN,0.00,0.0,WeatherDisplay:10.37,2013-02-27 14:56:00,
2013-02-27 09:02:00,28.8,24.3,29.90,ENE,69,17.3,17.3,83,0.00,OVC,BKN,0.00,0.0,WeatherDisplay:10.37,2013-02-27 15:02:00,
2013-02-27 09:07:00,28.8,24.3,29.90,NNE,13,20.7,20.7,83,0.00,OVC,BKN,0.00,0.0,WeatherDisplay:10.37,2013-02-27 15:07:00,
2013-02-27 09:12:00,28.8,24.6,29.90,NE,42,25.3,25.3,84,0.00,OVC,BKN,0.00,0.0,WeatherDisplay:10.37,2013-02-27 15:12:00,
2013-02-27 09:17:00,28.8,24.6,29.90,NNE,26,26.5,26.5,84,0.00,OVC,BKN,0.00,0.0,WeatherDisplay:10.37,2013-02-27 15:17:00,
2013-02-27 09:22:00,28.8,24.6,29.90,NNE,25,19.6,19.6,84,0.00,OVC,BKN,0.00,0.0,WeatherDisplay:10.37,2013-02-27 15:22:00,
2013-02-27 09:27:00,28.8,24.6,29.90,NNE,31,18.4,18.4,84,0.00,OVC,BKN,0.00,0.0,WeatherDisplay:10.37,2013-02-27 15:27:00,
2013-02-27 09:32:00,28.8,24.6,29.90,NNE,15,18.0,18.0,84,0.00,OVC,BKN,0.00,0.0,WeatherDisplay:10.37,2013-02-27 15:32:00,
2013-02-27 09:37:00,28.8,24.6,29.90,North,11,21.9,21.9,84,0.00,OVC,BKN,0.00,0.0,WeatherDisplay:10.37,2013-02-27 15:37:00,
2013-02-27 09:42:00,28.7,24.5,29.90,NE,42,23.0,23.0,84,0.00,OVC,BKN,0.00,0.0,WeatherDisplay:10.37,2013-02-27 15:42:00,
2013-02-27 09:48:00,28.7,24.5,29.90,NE,36,26.5,26.5,84,0.00,OVC,BKN,0.00,0.0,WeatherDisplay:10.37,2013-02-27 15:48:00,
2013-02-27 09:53:00,28.7,24.5,29.91,North,7,26.5,26.5,84,0.00,OVC,BKN,0.00,0.0,WeatherDisplay:10.37,2013-02-27 15:53:00,
2013-02-27 09:58:00,28.7,24.2,29.90,NE,39,19.6,19.6,83,0.00,OVC,BKN,0.00,0.0,WeatherDisplay:10.37,2013-02-27 15:58:00,
2013-02-27 10:03:00,28.7,24.2,29.91,NNE,27,16.1,16.1,83,0.00,OVC,BKN,0.00,0.0,WeatherDisplay:10.37,2013-02-27 16:03:00,
2013-02-27 10:08:00,28.7,24.5,29.90,East,83,23.0,23.0,84,0.00,OVC,BKN,0.00,0.0,WeatherDisplay:10.37,2013-02-27 16:08:00,
2013-02-27 10:13:00,28.5,24.3,29.91,NNE,14,24.2,24.2,84,0.00,OVC,BKN,0.00,0.0,WeatherDisplay:10.37,2013-02-27 16:13:00,
2013-02-27 10:18:00,28.4,24.5,29.91,NNE,18,12.7,12.7,85,0.00,OVC,BKN,0.00,0.0,WeatherDisplay:10.37,2013-02-27 16:18:00,
2013-02-27 10:23:00,28.4,24.5,29.91,NNE,32,20.7,20.7,85,0.00,OVC,BKN,0.00,0.0,WeatherDisplay:10.37,2013-02-27 16:23:00,
2013-02-27 10:29:00,28.2,24.3,29.91,NNE,16,12.7,12.7,85,0.00,OVC,BKN,0.00,0.0,WeatherDisplay:10.37,2013-02-27 16:29:00,
2013-02-27 10:34:00,28.4,24.5,29.90,ENE,57,24.2,24.2,85,0.00,OVC,BKN,0.00,0.0,WeatherDisplay:10.37,2013-02-27 16:34:00,
2013-02-27 10:39:00,28.4,24.7,29.91,ENE,63,10.4,10.4,86,0.00,OVC,BKN,0.00,0.0,WeatherDisplay:10.37,2013-02-27 16:39:00,
2013-02-27 10:44:00,28.5,24.8,29.91,NE,43,12.7,12.7,86,0.00,OVC,BKN,0.00,0.0,WeatherDisplay:10.37,2013-02-27 16:44:00,
2013-02-27 10:49:00,28.5,24.6,29.91,East,83,18.4,18.4,85,0.00,OVC,BKN,0.00,0.0,WeatherDisplay:10.37,2013-02-27 16:49:00,
2013-02-27 10:54:00,28.5,24.6,29.91,NE,46,15.0,15.0,85,0.00,OVC,BKN,0.00,0.0,WeatherDisplay:10.37,2013-02-27 16:54:00,
2013-02-27 10:59:00,28.5,24.3,29.91,ENE,67,18.0,18.0,84,0.00,OVC,BKN,0.00,0.0,WeatherDisplay:10.37,2013-02-27 16:59:00,
2013-02-27 11:05:00,28.5,24.6,29.91,NE,35,18.4,18.4,85,0.00,OVC,BKN,0.00,0.0,WeatherDisplay:10.37,2013-02-27 17:05:00,
2013-02-27 11:10:00,28.5,24.3,29.91,NE,46,17.3,17.3,84,0.00,OVC,BKN,0.00,0.0,WeatherDisplay:10.37,2013-02-27 17:10:00,
2013-02-27 11:15:00,28.7,24.5,29.91,NNE,27,28.8,28.8,84,0.00,OVC,BKN,0.00,0.0,WeatherDisplay:10.37,2013-02-27 17:15:00,
2013-02-27 11:20:00,28.8,24.6,29.91,NNE,13,19.6,19.6,84,0.00,OVC,BKN,0.00,0.0,WeatherDisplay:10.37,2013-02-27 17:20:00,
2013-02-27 11:25:00,28.8,24.6,29.91,NE,34,17.0,17.0,84,0.00,OVC,BKN,0.00,0.0,WeatherDisplay:10.37,2013-02-27 17:25:00,
2013-02-27 11:30:00,29.0,24.8,29.91,NE,51,16.1,16.1,84,0.00,OVC,BKN,0.00,0.0,WeatherDisplay:10.37,2013-02-27 17:30:00,
2013-02-27 11:35:00,29.0,24.8,29.91,East,92,16.1,16.1,84,0.00,OVC,BKN,0.00,0.0,WeatherDisplay:10.37,2013-02-27 17:35:00,
2013-02-27 11:40:00,29.1,24.9,29.91,ENE,60,17.3,17.3,84,0.00,OVC,BKN,0.00,0.0,WeatherDisplay:10.37,2013-02-27 17:40:00,
2013-02-27 11:46:00,29.1,24.9,29.91,NNE,23,23.0,23.0,84,0.00,OVC,BKN,0.00,0.0,WeatherDisplay:10.37,2013-02-27 17:46:00,
2013-02-27 11:51:00,29.1,24.9,29.91,NNE,27,16.0,16.0,84,0.00,OVC,BKN,0.00,0.0,WeatherDisplay:10.37,2013-02-27 17:51:00,
2013-02-27 11:56:00,29.1,24.9,29.91,ENE,68,20.7,20.7,84,0.00,OVC,BKN,0.00,0.0,WeatherDisplay:10.37,2013-02-27 17:56:00,
2013-02-27 12:01:00,29.1,24.9,29.91,NNE,19,15.0,15.0,84,0.00,OVC,BKN,0.00,0.0,WeatherDisplay:10.37,2013-02-27 18:01:00,
2013-02-27 12:06:00,29.0,25.1,29.91,NE,38,24.2,24.2,85,0.00,OVC,BKN,0.00,0.0,WeatherDisplay:10.37,2013-02-27 18:06:00,
2013-02-27 12:11:00,29.0,24.8,29.91,NE,37,26.5,26.5,84,0.00,OVC,BKN,0.00,0.0,WeatherDisplay:10.37,2013-02-27 18:11:00,
2013-02-27 12:16:00,29.0,24.8,29.91,ESE,114,20.7,20.7,84,0.00,OVC,BKN,0.00,0.0,WeatherDisplay:10.37,2013-02-27 18:16:00,
2013-02-27 12:22:00,29.0,24.8,29.91,ENE,60,19.6,19.6,84,0.00,OVC,BKN,0.00,0.0,WeatherDisplay:10.37,2013-02-27 18:22:00,
2013-02-27 12:27:00,29.1,24.9,29.91,North,5,20.7,20.7,84,0.00,OVC,BKN,0.00,0.0,WeatherDisplay:10.37,2013-02-27 18:27:00,
2013-02-27 12:32:00,29.1,25.2,29.91,ENE,77,19.6,19.6,85,0.00,OVC,BKN,0.00,0.0,WeatherDisplay:10.37,2013-02-27 18:32:00,
2013-02-27 12:37:00,29.1,24.9,29.91,NE,41,21.0,21.0,84,0.00,OVC,BKN,0.00,0.0,WeatherDisplay:10.37,2013-02-27 18:37:00,
2013-02-27 12:42:00,29.3,25.1,29.91,NNE,23,17.3,17.3,84,0.00,OVC,BKN,0.00,0.0,WeatherDisplay:10.37,2013-02-27 18:42:00,
2013-02-27 12:47:00,29.3,25.1,29.91,NE,50,20.7,20.7,84,0.00,OVC,BKN,0.00,0.0,WeatherDisplay:10.37,2013-02-27 18:47:00,
2013-02-27 12:52:00,29.3,25.1,29.91,NNE,23,19.0,19.0,84,0.00,OVC,BKN,0.00,0.0,WeatherDisplay:10.37,2013-02-27 18:52:00,
2013-02-27 12:57:00,29.3,25.1,29.91,NE,46,20.7,20.7,84,0.00,OVC,BKN,0.00,0.0,WeatherDisplay:10.37,2013-02-27 18:57:00,
2013-02-27 13:03:00,29.3,25.1,29.91,NE,38,25.3,25.3,84,0.00,OVC,BKN,0.00,0.0,WeatherDisplay:10.37,2013-02-27 19:03:00,
2013-02-27 13:08:00,29.3,25.1,29.91,SE,124,18.4,18.4,84,0.00,OVC,BKN,0.00,0.0,WeatherDisplay:10.37,2013-02-27 19:08:00,
2013-02-27 13:13:00,29.4,24.9,29.90,NNE,25,24.2,24.2,83,0.00,OVC,BKN,0.00,0.0,WeatherDisplay:10.37,2013-02-27 19:13:00,
2013-02-27 13:18:00,29.4,24.9,29.90,NE,35,15.0,15.0,83,0.00,OVC,BKN,0.00,0.0,WeatherDisplay:10.37,2013-02-27 19:18:00,
2013-02-27 13:23:00,29.5,25.0,29.90,ENE,69,19.6,19.6,83,0.00,OVC,BKN,0.00,0.0,WeatherDisplay:10.37,2013-02-27 19:23:00,
2013-02-27 13:28:00,29.5,25.0,29.90,ENE,61,20.7,20.7,83,0.00,OVC,BKN,0.00,0.0,WeatherDisplay:10.37,2013-02-27 19:28:00,
2013-02-27 13:33:00,29.7,25.5,29.90,NNE,12,28.8,28.8,84,0.00,OVC,BKN,0.00,0.0,WeatherDisplay:10.37,2013-02-27 19:33:00,
2013-02-27 13:39:00,29.5,25.3,29.91,NNE,30,17.3,17.3,84,0.00,OVC,BKN,0.00,0.0,WeatherDisplay:10.37,2013-02-27 19:39:00,
2013-02-27 13:44:00,29.4,25.2,29.91,North,2,26.5,26.5,84,0.00,OVC,BKN,0.00,0.0,WeatherDisplay:10.37,2013-02-27 19:44:00,
2013-02-27 13:49:00,29.3,25.4,29.91,North,360,17.3,17.3,85,0.00,OVC,BKN,0.00,0.0,WeatherDisplay:10.37,2013-02-27 19:49:00,
2013-02-27 13:54:00,29.1,25.4,29.91,NE,36,20.7,20.7,86,0.00,OVC,BKN,0.00,0.0,WeatherDisplay:10.37,2013-02-27 19:54:00,
2013-02-27 13:59:00,28.8,25.1,29.91,NNE,13,21.9,21.9,86,0.00,OVC,BKN,0.00,0.0,WeatherDisplay:10.37,2013-02-27 19:59:00,
2013-02-27 14:04:00,28.5,25.1,29.91,North,352,17.3,17.3,87,0.00,OVC,BKN,0.00,0.0,WeatherDisplay:10.37,2013-02-27 20:04:00,
2013-02-27 14:09:00,28.4,25.0,29.91,NNE,13,17.3,17.3,87,0.00,OVC,BKN,0.00,0.0,WeatherDisplay:10.37,2013-02-27 20:09:00,
2013-02-27 14:14:00,28.4,25.3,29.91,NNE,33,16.1,16.1,88,0.00,OVC,BKN,0.00,0.0,WeatherDisplay:10.37,2013-02-27 20:14:00,
2013-02-27 14:20:00,28.2,25.1,29.91,NE,53,24.2,24.2,88,0.00,OVC,BKN,0.00,0.0,WeatherDisplay:10.37,2013-02-27 20:20:00,
2013-02-27 14:25:00,28.1,25.0,29.91,NNE,32,10.4,10.4,88,0.00,OVC,BKN,0.00,0.0,WeatherDisplay:10.37,2013-02-27 20:25:00,
2013-02-27 14:30:00,28.1,25.0,29.92,North,4,15.0,15.0,88,0.00,OVC,BKN,0.00,0.0,WeatherDisplay:10.37,2013-02-27 20:30:00,
2013-02-27 14:35:00,27.9,24.8,29.92,NNE,13,26.5,26.5,88,0.00,OVC,BKN,0.00,0.0,WeatherDisplay:10.37,2013-02-27 20:35:00,
2013-02-27 14:40:00,27.9,25.1,29.92,NNE,23,24.2,24.2,89,0.00,OVC,BKN,0.00,0.0,WeatherDisplay:10.37,2013-02-27 20:40:00,
2013-02-27 14:45:00,27.9,25.1,29.92,North,356,26.5,26.5,89,0.00,OVC,BKN,0.00,0.0,WeatherDisplay:10.37,2013-02-27 20:45:00,
2013-02-27 14:50:00,27.9,25.1,29.92,NE,39,17.3,17.3,89,0.00,OVC,BKN,0.00,0.0,WeatherDisplay:10.37,2013-02-27 20:50:00,
2013-02-27 14:56:00,27.9,25.1,29.92,North,2,24.2,24.2,89,0.00,OVC,BKN,0.00,0.0,WeatherDisplay:10.37,2013-02-27 20:56:00,
2013-02-27 15:01:00,27.9,25.1,29.92,North,354,21.9,21.9,89,0.00,OVC,BKN,0.00,0.0,WeatherDisplay:10.37,2013-02-27 21:01:00,
2013-02-27 15:06:00,27.9,25.1,29.93,NNE,14,21.9,21.9,89,0.00,OVC,BKN,0.00,0.0,WeatherDisplay:10.37,2013-02-27 21:06:00,
2013-02-27 15:11:00,27.9,25.1,29.93,NE,40,25.3,25.3,89,0.00,OVC,BKN,0.00,0.0,WeatherDisplay:10.37,2013-02-27 21:11:00,
2013-02-27 15:16:00,27.9,25.1,29.93,North,350,13.8,13.8,89,0.00,OVC,BKN,0.00,0.0,WeatherDisplay:10.37,2013-02-27 21:16:00,
2013-02-27 15:21:00,27.9,25.1,29.93,NNE,17,19.6,19.6,89,0.00,OVC,BKN,0.00,0.0,WeatherDisplay:10.37,2013-02-27 21:21:00,
2013-02-27 15:26:00,27.9,25.1,29.93,NNE,16,32.2,32.2,89,0.00,OVC,BKN,0.00,0.0,WeatherDisplay:10.37,2013-02-27 21:26:00,
2013-02-27 15:31:00,27.9,25.3,29.93,NNE,24,17.3,17.3,90,0.00,OVC,BKN,0.00,0.0,WeatherDisplay:10.37,2013-02-27 21:31:00,
2013-02-27 15:37:00,28.1,25.3,29.93,ENE,58,15.0,15.0,89,0.00,OVC,BKN,0.00,0.0,WeatherDisplay:10.37,2013-02-27 21:37:00,
2013-02-27 15:42:00,28.1,25.3,29.93,North,358,11.5,11.5,89,0.00,OVC,BKN,0.00,0.0,WeatherDisplay:10.37,2013-02-27 21:42:00,
2013-02-27 15:47:00,28.1,25.3,29.93,NNW,341,18.4,18.4,89,0.00,OVC,BKN,0.00,0.0,WeatherDisplay:10.37,2013-02-27 21:47:00,
2013-02-27 15:52:00,28.2,25.4,29.93,NNE,14,24.2,24.2,89,0.00,OVC,BKN,0.00,0.0,WeatherDisplay:10.37,2013-02-27 21:52:00,
2013-02-27 15:57:00,28.2,25.4,29.93,NNE,21,18.4,18.4,89,0.00,OVC,BKN,0.00,0.0,WeatherDisplay:10.37,2013-02-27 21:57:00,
2013-02-27 16:02:00,28.2,25.4,29.93,North,10,23.0,23.0,89,0.00,CLR,BKN,0.00,0.0,WeatherDisplay:10.37,2013-02-27 22:02:00,
2013-02-27 16:07:00,28.4,25.6,29.94,NNE,25,19.0,19.0,89,0.00,CLR,BKN,0.00,0.0,WeatherDisplay:10.37,2013-02-27 22:07:00,
2013-02-27 16:13:00,28.4,25.6,29.94,NE,48,17.3,17.3,89,0.00,CLR,BKN,0.00,0.0,WeatherDisplay:10.37,2013-02-27 22:13:00,
2013-02-27 16:18:00,28.4,25.3,29.94,ENE,63,17.3,17.3,88,0.00,CLR,BKN,0.00,0.0,WeatherDisplay:10.37,2013-02-27 22:18:00,
2013-02-27 16:23:00,28.4,25.3,29.94,North,9,23.0,23.0,88,0.00,CLR,BKN,0.00,0.0,WeatherDisplay:10.37,2013-02-27 22:23:00,
2013-02-27 16:28:00,28.5,25.4,29.95,NNE,29,23.0,23.0,88,0.00,CLR,BKN,0.00,0.0,WeatherDisplay:10.37,2013-02-27 22:28:00,
2013-02-27 16:33:00,28.5,25.4,29.94,ENE,58,17.3,17.3,88,0.00,CLR,BKN,0.00,0.0,WeatherDisplay:10.37,2013-02-27 22:33:00,
2013-02-27 16:38:00,28.5,25.4,29.95,NNE,15,23.0,23.0,88,0.00,CLR,BKN,0.00,0.0,WeatherDisplay:10.37,2013-02-27 22:38:00,
2013-02-27 16:43:00,28.5,25.4,29.95,NE,46,18.4,18.4,88,0.00,CLR,BKN,0.00,0.0,WeatherDisplay:10.37,2013-02-27 22:43:00,
2013-02-27 16:48:00,28.5,25.4,29.95,NNE,30,12.7,12.7,88,0.00,CLR,BKN,0.00,0.0,WeatherDisplay:10.37,2013-02-27 22:48:00,
2013-02-27 16:54:00,28.5,25.4,29.95,NNE,25,20.7,20.7,88,0.00,CLR,BKN,0.00,0.0,WeatherDisplay:10.37,2013-02-27 22:54:00,
2013-02-27 16:59:00,28.7,25.3,29.95,ENE,60,10.4,10.4,87,0.00,CLR,BKN,0.00,0.0,WeatherDisplay:10.37,2013-02-27 22:59:00,
2013-02-27 17:04:00,28.7,25.3,29.95,NNE,26,29.9,29.9,87,0.00,CLR,BKN,0.00,0.0,WeatherDisplay:10.37,2013-02-27 23:04:00,
2013-02-27 17:09:00,28.7,25.3,29.96,North,2,18.4,18.4,87,0.00,CLR,BKN,0.00,0.0,WeatherDisplay:10.37,2013-02-27 23:09:00,
2013-02-27 17:14:00,28.7,25.3,29.95,NNE,24,21.9,21.9,87,0.00,CLR,BKN,0.00,0.0,WeatherDisplay:10.37,2013-02-27 23:14:00,
2013-02-27 17:19:00,28.7,25.0,29.96,NNE,14,25.3,25.3,86,0.00,CLR,BKN,0.00,0.0,WeatherDisplay:10.37,2013-02-27 23:19:00,
2013-02-27 17:24:00,28.7,25.0,29.96,North,9,8.0,8.1,86,0.00,CLR,BKN,0.00,0.0,WeatherDisplay:10.37,2013-02-27 23:24:00,
2013-02-27 17:29:00,28.8,24.9,29.96,NNE,22,8.0,29.0,85,0.00,CLR,BKN,0.00,0.0,WeatherDisplay:10.37,2013-02-27 23:29:00,
2013-02-27 17:35:00,28.8,24.9,29.96,NE,56,24.2,24.2,85,0.00,CLR,BKN,0.00,0.0,WeatherDisplay:10.37,2013-02-27 23:35:00,
2013-02-27 17:40:00,28.8,24.9,29.96,North,11,15.0,15.0,85,0.00,CLR,BKN,0.00,0.0,WeatherDisplay:10.37,2013-02-27 23:40:00,
2013-02-27 17:45:00,28.8,24.9,29.96,NNE,16,14.0,14.0,85,0.00,CLR,BKN,0.00,0.0,WeatherDisplay:10.37,2013-02-27 23:45:00,
2013-02-27 17:50:00,29.0,25.1,29.97,NE,42,18.4,18.4,85,0.00,CLR,BKN,0.00,0.0,WeatherDisplay:10.37,2013-02-27 23:50:00,
2013-02-27 17:55:00,29.0,25.1,29.97,NE,43,15.0,15.0,85,0.00,CLR,BKN,0.00,0.0,WeatherDisplay:10.37,2013-02-27 23:55:00,
2013-02-27 18:00:00,29.0,24.8,29.97,NNE,27,18.4,18.4,84,0.00,CLR,BKN,0.00,0.0,WeatherDisplay:10.37,2013-02-28 00:00:00,
2013-02-27 18:05:00,29.0,24.8,29.97,NE,46,15.0,15.0,84,0.00,CLR,BKN,0.00,0.0,WeatherDisplay:10.37,2013-02-28 00:05:00,
2013-02-27 18:11:00,29.0,24.5,29.98,NNE,25,19.6,19.6,83,0.00,CLR,BKN,0.00,0.0,WeatherDisplay:10.37,2013-02-28 00:11:00,
2013-02-27 18:16:00,29.0,24.2,29.98,East,95,16.1,16.1,82,0.00,CLR,BKN,0.00,0.0,WeatherDisplay:10.37,2013-02-28 00:16:00,
2013-02-27 18:21:00,29.0,23.9,29.98,North,9,10.4,10.4,81,0.00,CLR,BKN,0.00,0.0,WeatherDisplay:10.37,2013-02-28 00:21:00,
2013-02-27 18:26:00,29.0,23.6,29.98,NE,54,26.5,26.5,80,0.00,CLR,BKN,0.00,0.0,WeatherDisplay:10.37,2013-02-28 00:26:00,
2013-02-27 18:31:00,29.0,23.3,29.99,ENE,59,26.5,26.5,79,0.00,CLR,BKN,0.00,0.0,WeatherDisplay:10.37,2013-02-28 00:31:00,
2013-02-27 18:36:00,29.0,22.7,29.99,NE,45,20.7,20.7,77,0.00,CLR,BKN,0.00,0.0,WeatherDisplay:10.37,2013-02-28 00:36:00,
2013-02-27 18:41:00,29.1,22.8,29.99,NE,50,15.0,15.0,77,0.00,CLR,BKN,0.00,0.0,WeatherDisplay:10.37,2013-02-28 00:41:00,
2013-02-27 18:47:00,29.1,22.8,29.99,NNE,22,19.6,19.6,77,0.00,CLR,BKN,0.00,0.0,WeatherDisplay:10.37,2013-02-28 00:47:00,
2013-02-27 18:52:00,29.1,22.5,29.99,North,356,15.0,15.0,76,0.00,CLR,BKN,0.00,0.0,WeatherDisplay:10.37,2013-02-28 00:52:00,
2013-02-27 18:57:00,29.1,22.5,29.99,ENE,63,13.8,13.8,76,0.00,CLR,BKN,0.00,0.0,WeatherDisplay:10.37,2013-02-28 00:57:00,
2013-02-27 19:02:00,29.1,22.8,29.99,NE,44,17.3,17.3,77,0.00,CLR,BKN,0.00,0.0,WeatherDisplay:10.37,2013-02-28 01:02:00,
2013-02-27 19:07:00,29.1,22.8,29.99,NE,47,19.6,19.6,77,0.00,CLR,BKN,0.00,0.0,WeatherDisplay:10.37,2013-02-28 01:07:00,
2013-02-27 19:12:00,29.1,23.1,29.99,NNW,341,15.0,15.0,78,0.00,CLR,BKN,0.00,0.0,WeatherDisplay:10.37,2013-02-28 01:12:00,
2013-02-27 19:17:00,29.1,23.1,29.99,NE,37,23.0,23.0,78,0.00,CLR,BKN,0.00,0.0,WeatherDisplay:10.37,2013-02-28 01:17:00,
2013-02-27 19:22:00,29.1,23.1,29.99,NNE,22,17.3,17.3,78,0.00,CLR,BKN,0.00,0.0,WeatherDisplay:10.37,2013-02-28 01:22:00,
2013-02-27 19:28:00,29.1,23.4,29.99,NNE,29,15.0,15.0,79,0.00,CLR,BKN,0.00,0.0,WeatherDisplay:10.37,2013-02-28 01:28:00,
2013-02-27 19:33:00,29.1,23.4,30.00,North,2,15.0,15.0,79,0.00,CLR,BKN,0.00,0.0,WeatherDisplay:10.37,2013-02-28 01:33:00,
2013-02-27 19:38:00,29.1,23.4,30.00,NNE,13,18.4,18.4,79,0.00,CLR,BKN,0.00,0.0,WeatherDisplay:10.37,2013-02-28 01:38:00,
2013-02-27 19:43:00,29.1,23.4,30.00,NNE,23,18.4,18.4,79,0.00,CLR,BKN,0.00,0.0,WeatherDisplay:10.37,2013-02-28 01:43:00,
2013-02-27 19:48:00,29.1,23.1,30.00,NNW,337,16.1,16.1,78,0.00,CLR,BKN,0.00,0.0,WeatherDisplay:10.37,2013-02-28 01:48:00,
2013-02-27 19:53:00,29.1,23.4,30.00,NNE,23,13.8,13.8,79,0.00,CLR,BKN,0.00,0.0,WeatherDisplay:10.37,2013-02-28 01:53:00,
2013-02-27 19:58:00,29.1,23.4,30.00,NNW,348,15.0,15.0,79,0.00,CLR,BKN,0.00,0.0,WeatherDisplay:10.37,2013-02-28 01:58:00,
2013-02-27 20:04:00,29.1,23.4,30.01,NNE,30,13.8,13.8,79,0.00,CLR,BKN,0.00,0.0,WeatherDisplay:10.37,2013-02-28 02:04:00,
2013-02-27 20:09:00,29.0,23.0,30.01,NNW,345,18.0,18.0,78,0.00,CLR,BKN,0.00,0.0,WeatherDisplay:10.37,2013-02-28 02:09:00,
2013-02-27 20:14:00,29.0,23.3,30.00,NNE,21,15.0,15.0,79,0.00,CLR,BKN,0.00,0.0,WeatherDisplay:10.37,2013-02-28 02:14:00,
2013-02-27 20:19:00,28.8,22.8,30.01,ENE,58,16.1,16.1,78,0.00,CLR,BKN,0.00,0.0,WeatherDisplay:10.37,2013-02-28 02:19:00,
2013-02-27 20:24:00,28.8,22.8,30.01,NNE,17,13.8,13.8,78,0.00,CLR,BKN,0.00,0.0,WeatherDisplay:10.37,2013-02-28 02:24:00,
2013-02-27 20:29:00,28.8,22.8,30.01,NNE,14,12.7,12.7,78,0.00,CLR,BKN,0.00,0.0,WeatherDisplay:10.37,2013-02-28 02:29:00,
2013-02-27 20:34:00,28.7,22.7,30.00,NE,38,12.7,12.8,78,0.00,CLR,BKN,0.00,0.0,WeatherDisplay:10.37,2013-02-28 02:34:00,
2013-02-27 20:39:00,28.7,22.7,30.01,NNE,24,10.0,24.0,78,0.00,CLR,BKN,0.00,0.0,WeatherDisplay:10.37,2013-02-28 02:39:00,
2013-02-27 20:45:00,28.7,22.7,30.01,NE,36,17.3,17.3,78,0.00,CLR,BKN,0.00,0.0,WeatherDisplay:10.37,2013-02-28 02:45:00,
2013-02-27 20:50:00,28.7,22.7,30.01,North,11,16.1,16.1,78,0.00,CLR,BKN,0.00,0.0,WeatherDisplay:10.37,2013-02-28 02:50:00,
2013-02-27 20:55:00,28.5,22.5,30.01,North,9,15.0,15.0,78,0.00,CLR,BKN,0.00,0.0,WeatherDisplay:10.37,2013-02-28 02:55:00,
2013-02-27 21:00:00,28.5,22.5,30.01,NE,46,20.7,20.7,78,0.00,CLR,BKN,0.00,0.0,WeatherDisplay:10.37,2013-02-28 03:00:00,
2013-02-27 21:05:00,28.5,22.5,30.01,NNE,19,12.7,12.7,78,0.00,CLR,BKN,0.00,0.0,WeatherDisplay:10.37,2013-02-28 03:05:00,
2013-02-27 21:10:00,28.5,22.5,30.02,NNE,25,18.4,18.4,78,0.00,CLR,BKN,0.00,0.0,WeatherDisplay:10.37,2013-02-28 03:10:00,
2013-02-27 21:15:00,28.5,22.8,30.02,NE,35,17.3,17.3,79,0.00,CLR,BKN,0.00,0.0,WeatherDisplay:10.37,2013-02-28 03:15:00,
2013-02-27 21:21:00,28.5,22.8,30.02,NNW,331,21.9,21.9,79,0.00,CLR,BKN,0.00,0.0,WeatherDisplay:10.37,2013-02-28 03:21:00,
2013-02-27 21:26:00,28.5,23.1,30.02,NNE,18,23.0,23.0,80,0.00,CLR,BKN,0.00,0.0,WeatherDisplay:10.37,2013-02-28 03:26:00,
2013-02-27 21:31:00,28.5,23.1,30.02,NNE,12,19.6,19.6,80,0.00,CLR,BKN,0.00,0.0,WeatherDisplay:10.37,2013-02-28 03:31:00,
2013-02-27 21:36:00,28.5,23.1,30.02,NE,52,15.0,15.0,80,0.00,CLR,BKN,0.00,0.0,WeatherDisplay:10.37,2013-02-28 03:36:00,
2013-02-27 21:41:00,28.5,23.4,30.02,SSE,162,18.4,18.4,81,0.00,CLR,BKN,0.00,0.0,WeatherDisplay:10.37,2013-02-28 03:41:00,
2013-02-27 21:46:00,28.5,23.4,30.02,NNW,347,15.0,15.0,81,0.00,CLR,BKN,0.00,0.0,WeatherDisplay:10.37,2013-02-28 03:46:00,
2013-02-27 21:51:00,28.5,23.7,30.01,NNE,17,15.0,15.0,82,0.00,CLR,BKN,0.00,0.0,WeatherDisplay:10.37,2013-02-28 03:51:00,
2013-02-27 21:57:00,28.5,23.7,30.02,NNE,21,17.3,17.3,82,0.00,CLR,BKN,0.00,0.0,WeatherDisplay:10.37,2013-02-28 03:57:00,
2013-02-27 22:02:00,28.5,23.7,30.02,ENE,58,15.0,15.0,82,0.00,CLR,BKN,0.00,0.0,WeatherDisplay:10.37,2013-02-28 04:02:00,
2013-02-27 22:07:00,28.5,23.7,30.02,East,81,16.1,16.1,82,0.00,CLR,BKN,0.00,0.0,WeatherDisplay:10.37,2013-02-28 04:07:00,
2013-02-27 22:12:00,28.5,23.7,30.02,NE,46,13.8,13.8,82,0.00,CLR,BKN,0.00,0.0,WeatherDisplay:10.37,2013-02-28 04:12:00,
2013-02-27 22:17:00,28.5,24.0,30.02,NE,39,18.4,18.4,83,0.00,CLR,BKN,0.00,0.0,WeatherDisplay:10.37,2013-02-28 04:17:00,
2013-02-27 22:22:00,28.5,23.7,30.02,NE,51,23.0,23.0,82,0.00,CLR,BKN,0.00,0.0,WeatherDisplay:10.37,2013-02-28 04:22:00,
2013-02-27 22:27:00,28.5,23.7,30.02,East,87,17.3,17.3,82,0.00,CLR,BKN,0.00,0.0,WeatherDisplay:10.37,2013-02-28 04:27:00,
2013-02-27 22:32:00,28.5,23.7,30.02,NE,34,17.3,17.3,82,0.00,CLR,BKN,0.00,0.0,WeatherDisplay:10.37,2013-02-28 04:32:00,
2013-02-27 22:38:00,28.5,23.7,30.02,ESE,102,11.5,11.5,82,0.00,CLR,BKN,0.00,0.0,WeatherDisplay:10.37,2013-02-28 04:38:00,
2013-02-27 22:43:00,28.5,23.7,30.02,NE,38,19.6,19.6,82,0.00,CLR,BKN,0.00,0.0,WeatherDisplay:10.37,2013-02-28 04:43:00,
2013-02-27 22:48:00,28.5,23.7,30.02,NE,34,20.7,20.7,82,0.00,CLR,BKN,0.00,0.0,WeatherDisplay:10.37,2013-02-28 04:48:00,
2013-02-27 22:53:00,28.4,23.9,30.02,NE,38,16.1,16.1,83,0.00,CLR,BKN,0.00,0.0,WeatherDisplay:10.37,2013-02-28 04:53:00,
2013-02-27 22:58:00,28.4,23.6,30.02,North,5,23.0,23.0,82,0.00,CLR,BKN,0.00,0.0,WeatherDisplay:10.37,2013-02-28 04:58:00,
2013-02-27 23:00:00,28.4,23.6,30.02,ENE,60,13.8,13.8,82,0.00,CLR,BKN,0.00,0.0,WeatherDisplay:10.37,2013-02-28 05:00:00,
2013-02-27 23:06:00,28.4,23.6,30.02,NNE,14,24.2,24.2,82,0.00,CLR,BKN,0.00,0.0,WeatherDisplay:10.37,2013-02-28 05:06:00,
2013-02-27 23:11:00,28.2,23.7,30.02,NNE,17,12.0,12.0,83,0.00,CLR,BKN,0.00,0.0,WeatherDisplay:10.37,2013-02-28 05:11:00,
2013-02-27 23:16:00,28.2,23.7,30.02,NNE,26,19.6,19.6,83,0.00,CLR,BKN,0.00,0.0,WeatherDisplay:10.37,2013-02-28 05:16:00,
2013-02-27 23:21:00,28.2,23.7,30.02,NE,36,11.5,11.5,83,0.00,CLR,BKN,0.00,0.0,WeatherDisplay:10.37,2013-02-28 05:21:00,
2013-02-27 23:26:00,28.1,23.6,30.02,North,357,12.7,12.7,83,0.00,CLR,BKN,0.00,0.0,WeatherDisplay:10.37,2013-02-28 05:26:00,
2013-02-27 23:31:00,27.9,23.4,30.02,NNE,21,26.5,26.5,83,0.00,CLR,BKN,0.00,0.0,WeatherDisplay:10.37,2013-02-28 05:31:00,
2013-02-27 23:36:00,27.9,23.7,30.02,NE,38,24.2,24.2,84,0.00,CLR,BKN,0.00,0.0,WeatherDisplay:10.37,2013-02-28 05:36:00,
2013-02-27 23:41:00,27.8,23.6,30.02,NE,40,21.9,21.9,84,0.00,CLR,BKN,0.00,0.0,WeatherDisplay:10.37,2013-02-28 05:41:00,
2013-02-27 23:46:00,27.6,23.7,30.02,NNE,23,13.8,13.8,85,0.00,CLR,BKN,0.00,0.0,WeatherDisplay:10.37,2013-02-28 05:46:00,
2013-02-27 23:52:00,27.5,23.6,30.02,NNE,24,21.9,21.9,85,0.00,CLR,BKN,0.00,0.0,WeatherDisplay:10.37,2013-02-28 05:52:00,
2013-02-27 23:57:00,27.3,23.4,30.03,NNE,25,17.0,17.0,85,0.00,CLR,BKN,0.00,0.0,WeatherDisplay:10.37,2013-02-28 05:57:00,